Terminal Aerodrome Forecast
Issued by NWS Bismarck, ND

Home | Current Version | Previous Version | Graphics & Text | Print | Product List | Glossary On
Versions: 1 2 3 4 5 6 7 8 9 10 11 12
816
FTUS43 KBIS 131737
TAFISN
TAF
KISN 131737Z 1318/1418 23006KT P6SM SKC
     FM132200 25007KT P6SM SKC
     FM141000 22005KT P6SM SKC=

USA.gov is the U.S. government's official web portal to all federal, state and local government web resources and services.